sensor_id;sensor_type;location;lat;lon;timestamp;P1;durP1;ratioP1;P2;durP2;ratioP2
66264;SDS011;53055;44.648;21.148;2023-04-01T00:00:49;17.40;;;9.60;;
66264;SDS011;53055;44.648;21.148;2023-04-01T00:03:15;16.10;;;9.38;;
66264;SDS011;53055;44.648;21.148;2023-04-01T00:05:42;13.73;;;8.90;;
66264;SDS011;53055;44.648;21.148;2023-04-01T00:08:08;17.60;;;9.93;;
66264;SDS011;53055;44.648;21.148;2023-04-01T00:10:34;16.48;;;9.82;;
66264;SDS011;53055;44.648;21.148;2023-04-01T00:13:00;16.80;;;9.85;;
66264;SDS011;53055;44.648;21.148;2023-04-01T00:15:26;16.27;;;10.00;;
66264;SDS011;53055;44.648;21.148;2023-04-01T00:17:52;18.25;;;9.77;;
66264;SDS011;53055;44.648;21.148;2023-04-01T00:20:19;24.58;;;15.48;;
66264;SDS011;53055;44.648;21.148;2023-04-01T00:22:45;22.67;;;15.65;;
66264;SDS011;53055;44.648;21.148;2023-04-01T00:25:11;21.45;;;13.15;;
66264;SDS011;53055;44.648;21.148;2023-04-01T00:27:37;17.85;;;11.65;;
66264;SDS011;53055;44.648;21.148;2023-04-01T00:30:04;18.40;;;11.60;;
66264;SDS011;53055;44.648;21.148;2023-04-01T00:32:30;20.83;;;13.95;;
66264;SDS011;53055;44.648;21.148;2023-04-01T00:34:57;21.55;;;15.25;;
66264;SDS011;53055;44.648;21.148;2023-04-01T00:37:26;20.77;;;13.80;;
66264;SDS011;53055;44.648;21.148;2023-04-01T00:39:53;19.60;;;12.15;;
66264;SDS011;53055;44.648;21.148;2023-04-01T00:42:19;22.17;;;14.02;;
66264;SDS011;53055;44.648;21.148;2023-04-01T00:44:47;17.55;;;12.23;;
66264;SDS011;53055;44.648;21.148;2023-04-01T00:47:14;21.58;;;14.85;;
66264;SDS011;53055;44.648;21.148;2023-04-01T00:49:40;21.75;;;14.93;;
66264;SDS011;53055;44.648;21.148;2023-04-01T00:52:08;30.77;;;19.70;;
66264;SDS011;53055;44.648;21.148;2023-04-01T00:54:36;66.60;;;44.55;;
66264;SDS011;53055;44.648;21.148;2023-04-01T00:57:05;24.67;;;15.57;;
66264;SDS011;53055;44.648;21.148;2023-04-01T00:59:33;17.20;;;11.45;;
66264;SDS011;53055;44.648;21.148;2023-04-01T01:02:00;18.15;;;13.02;;
66264;SDS011;53055;44.648;21.148;2023-04-01T01:04:28;20.77;;;15.48;;
66264;SDS011;53055;44.648;21.148;2023-04-01T01:06:56;20.00;;;12.93;;
66264;SDS011;53055;44.648;21.148;2023-04-01T01:10:09;20.55;;;11.85;;
66264;SDS011;53055;44.648;21.148;2023-04-01T01:14:55;18.02;;;12.15;;
66264;SDS011;53055;44.648;21.148;2023-04-01T01:22:22;15.95;;;10.40;;
66264;SDS011;53055;44.648;21.148;2023-04-01T01:27:17;14.63;;;8.48;;
66264;SDS011;53055;44.648;21.148;2023-04-01T01:35:13;20.25;;;13.35;;
66264;SDS011;53055;44.648;21.148;2023-04-01T01:37:40;13.43;;;8.63;;
66264;SDS011;53055;44.648;21.148;2023-04-01T01:40:08;11.43;;;6.30;;
66264;SDS011;53055;44.648;21.148;2023-04-01T01:42:37;12.07;;;6.10;;
66264;SDS011;53055;44.648;21.148;2023-04-01T01:45:04;9.07;;;5.00;;
66264;SDS011;53055;44.648;21.148;2023-04-01T01:47:31;11.05;;;5.60;;
66264;SDS011;53055;44.648;21.148;2023-04-01T01:49:58;12.43;;;5.75;;
66264;SDS011;53055;44.648;21.148;2023-04-01T01:52:26;14.10;;;6.57;;
66264;SDS011;53055;44.648;21.148;2023-04-01T01:54:54;10.27;;;4.82;;
66264;SDS011;53055;44.648;21.148;2023-04-01T01:57:23;11.05;;;4.10;;
66264;SDS011;53055;44.648;21.148;2023-04-01T01:59:50;7.97;;;4.35;;
66264;SDS011;53055;44.648;21.148;2023-04-01T02:02:17;12.75;;;8.23;;
66264;SDS011;53055;44.648;21.148;2023-04-01T02:04:44;14.20;;;9.40;;
66264;SDS011;53055;44.648;21.148;2023-04-01T02:07:13;13.88;;;6.82;;
66264;SDS011;53055;44.648;21.148;2023-04-01T02:09:41;12.98;;;6.25;;
66264;SDS011;53055;44.648;21.148;2023-04-01T02:12:09;13.60;;;6.45;;
66264;SDS011;53055;44.648;21.148;2023-04-01T02:17:05;11.75;;;4.50;;
66264;SDS011;53055;44.648;21.148;2023-04-01T02:19:33;9.95;;;5.03;;
66264;SDS011;53055;44.648;21.148;2023-04-01T02:22:02;29.30;;;17.80;;
66264;SDS011;53055;44.648;21.148;2023-04-01T02:24:30;51.03;;;33.45;;
66264;SDS011;53055;44.648;21.148;2023-04-01T02:26:56;10.25;;;5.15;;
66264;SDS011;53055;44.648;21.148;2023-04-01T02:29:23;11.95;;;4.80;;
66264;SDS011;53055;44.648;21.148;2023-04-01T02:31:53;7.80;;;4.03;;
66264;SDS011;53055;44.648;21.148;2023-04-01T02:34:20;11.55;;;5.05;;
66264;SDS011;53055;44.648;21.148;2023-04-01T02:36:47;8.60;;;5.13;;
66264;SDS011;53055;44.648;21.148;2023-04-01T02:39:14;13.65;;;6.63;;
66264;SDS011;53055;44.648;21.148;2023-04-01T02:41:41;11.27;;;6.43;;
66264;SDS011;53055;44.648;21.148;2023-04-01T02:44:08;12.70;;;7.55;;
66264;SDS011;53055;44.648;21.148;2023-04-01T02:46:35;15.38;;;9.65;;
66264;SDS011;53055;44.648;21.148;2023-04-01T02:49:01;17.13;;;11.98;;
66264;SDS011;53055;44.648;21.148;2023-04-01T02:51:27;8.68;;;5.38;;
66264;SDS011;53055;44.648;21.148;2023-04-01T02:53:53;9.88;;;4.88;;
66264;SDS011;53055;44.648;21.148;2023-04-01T02:56:19;16.60;;;9.48;;
66264;SDS011;53055;44.648;21.148;2023-04-01T02:58:46;15.25;;;9.93;;
66264;SDS011;53055;44.648;21.148;2023-04-01T03:01:12;12.32;;;7.22;;
66264;SDS011;53055;44.648;21.148;2023-04-01T03:03:38;13.40;;;7.50;;
66264;SDS011;53055;44.648;21.148;2023-04-01T03:06:11;18.05;;;10.68;;
66264;SDS011;53055;44.648;21.148;2023-04-01T03:08:38;13.52;;;9.13;;
66264;SDS011;53055;44.648;21.148;2023-04-01T03:11:04;15.57;;;9.27;;
66264;SDS011;53055;44.648;21.148;2023-04-01T03:13:31;10.48;;;6.15;;
66264;SDS011;53055;44.648;21.148;2023-04-01T03:15:57;12.40;;;6.25;;
66264;SDS011;53055;44.648;21.148;2023-04-01T03:18:23;14.10;;;6.43;;
66264;SDS011;53055;44.648;21.148;2023-04-01T03:20:49;12.52;;;7.07;;
66264;SDS011;53055;44.648;21.148;2023-04-01T03:23:15;11.93;;;7.50;;
66264;SDS011;53055;44.648;21.148;2023-04-01T03:25:49;10.50;;;5.50;;
66264;SDS011;53055;44.648;21.148;2023-04-01T03:28:15;15.27;;;6.63;;
66264;SDS011;53055;44.648;21.148;2023-04-01T03:30:41;41.83;;;30.20;;
66264;SDS011;53055;44.648;21.148;2023-04-01T03:33:07;40.58;;;32.05;;
66264;SDS011;53055;44.648;21.148;2023-04-01T03:35:33;26.90;;;20.15;;
66264;SDS011;53055;44.648;21.148;2023-04-01T03:38:01;25.35;;;22.38;;
66264;SDS011;53055;44.648;21.148;2023-04-01T03:40:27;22.02;;;19.73;;
66264;SDS011;53055;44.648;21.148;2023-04-01T03:42:53;18.45;;;12.93;;
66264;SDS011;53055;44.648;21.148;2023-04-01T03:45:21;16.95;;;15.10;;
66264;SDS011;53055;44.648;21.148;2023-04-01T03:47:47;30.30;;;27.50;;
66264;SDS011;53055;44.648;21.148;2023-04-01T03:50:13;15.50;;;13.35;;
66264;SDS011;53055;44.648;21.148;2023-04-01T03:52:39;12.27;;;7.88;;
66264;SDS011;53055;44.648;21.148;2023-04-01T03:55:05;15.02;;;12.45;;
66264;SDS011;53055;44.648;21.148;2023-04-01T03:57:31;12.57;;;9.57;;
66264;SDS011;53055;44.648;21.148;2023-04-01T03:59:57;12.32;;;8.07;;
66264;SDS011;53055;44.648;21.148;2023-04-01T04:02:23;12.20;;;7.93;;
66264;SDS011;53055;44.648;21.148;2023-04-01T04:04:50;11.52;;;7.18;;
66264;SDS011;53055;44.648;21.148;2023-04-01T04:07:16;10.18;;;6.78;;
66264;SDS011;53055;44.648;21.148;2023-04-01T04:09:42;11.20;;;7.50;;
66264;SDS011;53055;44.648;21.148;2023-04-01T04:12:08;9.45;;;4.50;;
66264;SDS011;53055;44.648;21.148;2023-04-01T04:14:34;9.75;;;4.40;;
66264;SDS011;53055;44.648;21.148;2023-04-01T04:17:00;9.00;;;4.00;;
66264;SDS011;53055;44.648;21.148;2023-04-01T04:19:26;8.77;;;4.13;;
66264;SDS011;53055;44.648;21.148;2023-04-01T04:21:52;8.82;;;5.60;;
66264;SDS011;53055;44.648;21.148;2023-04-01T04:24:18;9.70;;;4.70;;
66264;SDS011;53055;44.648;21.148;2023-04-01T04:26:44;9.82;;;4.80;;
66264;SDS011;53055;44.648;21.148;2023-04-01T04:29:10;8.95;;;5.65;;
66264;SDS011;53055;44.648;21.148;2023-04-01T04:31:36;8.80;;;4.40;;
66264;SDS011;53055;44.648;21.148;2023-04-01T04:34:02;11.68;;;5.47;;
66264;SDS011;53055;44.648;21.148;2023-04-01T04:36:28;10.38;;;6.07;;
66264;SDS011;53055;44.648;21.148;2023-04-01T04:38:54;10.05;;;5.63;;
66264;SDS011;53055;44.648;21.148;2023-04-01T04:41:22;9.98;;;6.18;;
66264;SDS011;53055;44.648;21.148;2023-04-01T04:43:53;11.38;;;6.32;;
66264;SDS011;53055;44.648;21.148;2023-04-01T04:46:19;11.15;;;6.70;;
66264;SDS011;53055;44.648;21.148;2023-04-01T04:48:46;11.45;;;5.68;;
66264;SDS011;53055;44.648;21.148;2023-04-01T04:51:13;9.90;;;5.40;;
66264;SDS011;53055;44.648;21.148;2023-04-01T04:53:40;9.80;;;5.28;;
66264;SDS011;53055;44.648;21.148;2023-04-01T04:56:06;14.32;;;9.57;;
66264;SDS011;53055;44.648;21.148;2023-04-01T04:58:32;12.23;;;6.68;;
66264;SDS011;53055;44.648;21.148;2023-04-01T05:00:58;13.40;;;8.48;;
66264;SDS011;53055;44.648;21.148;2023-04-01T05:03:24;11.48;;;7.00;;
66264;SDS011;53055;44.648;21.148;2023-04-01T05:05:51;10.88;;;6.47;;
66264;SDS011;53055;44.648;21.148;2023-04-01T05:08:17;13.07;;;8.38;;
66264;SDS011;53055;44.648;21.148;2023-04-01T05:10:43;11.82;;;7.15;;
66264;SDS011;53055;44.648;21.148;2023-04-01T05:13:10;10.82;;;7.45;;
66264;SDS011;53055;44.648;21.148;2023-04-01T05:15:36;13.10;;;6.78;;
66264;SDS011;53055;44.648;21.148;2023-04-01T05:18:02;12.25;;;6.72;;
66264;SDS011;53055;44.648;21.148;2023-04-01T05:20:28;16.38;;;12.13;;
66264;SDS011;53055;44.648;21.148;2023-04-01T05:22:57;11.95;;;8.88;;
66264;SDS011;53055;44.648;21.148;2023-04-01T05:25:24;18.60;;;10.77;;
66264;SDS011;53055;44.648;21.148;2023-04-01T05:27:50;16.33;;;10.90;;
66264;SDS011;53055;44.648;21.148;2023-04-01T05:30:16;15.27;;;9.75;;
66264;SDS011;53055;44.648;21.148;2023-04-01T05:32:42;14.32;;;10.15;;
66264;SDS011;53055;44.648;21.148;2023-04-01T05:35:09;17.73;;;11.50;;
66264;SDS011;53055;44.648;21.148;2023-04-01T05:37:35;13.75;;;8.77;;
66264;SDS011;53055;44.648;21.148;2023-04-01T05:40:02;14.95;;;9.60;;
66264;SDS011;53055;44.648;21.148;2023-04-01T05:42:28;15.23;;;8.57;;
66264;SDS011;53055;44.648;21.148;2023-04-01T05:44:54;13.32;;;8.65;;
66264;SDS011;53055;44.648;21.148;2023-04-01T05:47:21;12.68;;;7.90;;
66264;SDS011;53055;44.648;21.148;2023-04-01T05:49:47;14.65;;;9.02;;
66264;SDS011;53055;44.648;21.148;2023-04-01T05:52:13;23.90;;;18.52;;
66264;SDS011;53055;44.648;21.148;2023-04-01T05:54:39;20.33;;;16.17;;
66264;SDS011;53055;44.648;21.148;2023-04-01T05:57:05;19.83;;;12.32;;
66264;SDS011;53055;44.648;21.148;2023-04-01T05:59:31;16.17;;;10.90;;
66264;SDS011;53055;44.648;21.148;2023-04-01T06:01:59;18.45;;;12.27;;
66264;SDS011;53055;44.648;21.148;2023-04-01T06:04:26;12.75;;;10.00;;
66264;SDS011;53055;44.648;21.148;2023-04-01T06:06:55;17.08;;;12.27;;
66264;SDS011;53055;44.648;21.148;2023-04-01T06:09:26;20.38;;;13.50;;
66264;SDS011;53055;44.648;21.148;2023-04-01T06:12:12;17.50;;;11.98;;
66264;SDS011;53055;44.648;21.148;2023-04-01T06:17:26;17.73;;;12.38;;
66264;SDS011;53055;44.648;21.148;2023-04-01T06:30:05;27.58;;;22.63;;
66264;SDS011;53055;44.648;21.148;2023-04-01T06:37:42;14.35;;;10.35;;
66264;SDS011;53055;44.648;21.148;2023-04-01T06:40:18;15.43;;;10.77;;
66264;SDS011;53055;44.648;21.148;2023-04-01T06:55:47;14.60;;;9.02;;
66264;SDS011;53055;44.648;21.148;2023-04-01T06:58:21;13.65;;;9.20;;
66264;SDS011;53055;44.648;21.148;2023-04-01T07:00:49;14.60;;;8.80;;
66264;SDS011;53055;44.648;21.148;2023-04-01T07:03:21;14.98;;;9.57;;
66264;SDS011;53055;44.648;21.148;2023-04-01T07:05:48;16.05;;;12.48;;
66264;SDS011;53055;44.648;21.148;2023-04-01T07:08:20;23.73;;;14.65;;
66264;SDS011;53055;44.648;21.148;2023-04-01T07:11:09;23.27;;;16.03;;
66264;SDS011;53055;44.648;21.148;2023-04-01T07:13:53;20.20;;;14.18;;
66264;SDS011;53055;44.648;21.148;2023-04-01T07:21:23;21.38;;;12.77;;
66264;SDS011;53055;44.648;21.148;2023-04-01T07:23:51;19.80;;;13.90;;
66264;SDS011;53055;44.648;21.148;2023-04-01T07:26:19;19.63;;;14.27;;
66264;SDS011;53055;44.648;21.148;2023-04-01T07:28:45;18.13;;;12.93;;
66264;SDS011;53055;44.648;21.148;2023-04-01T07:33:46;13.50;;;9.40;;
66264;SDS011;53055;44.648;21.148;2023-04-01T07:36:32;13.32;;;8.30;;
66264;SDS011;53055;44.648;21.148;2023-04-01T07:41:39;14.05;;;8.77;;
66264;SDS011;53055;44.648;21.148;2023-04-01T07:57:33;22.42;;;16.55;;
66264;SDS011;53055;44.648;21.148;2023-04-01T07:59:49;21.88;;;14.45;;
66264;SDS011;53055;44.648;21.148;2023-04-01T08:21:28;19.42;;;11.82;;
66264;SDS011;53055;44.648;21.148;2023-04-01T08:23:56;19.23;;;11.68;;
66264;SDS011;53055;44.648;21.148;2023-04-01T08:26:36;24.42;;;14.85;;
66264;SDS011;53055;44.648;21.148;2023-04-01T08:31:40;22.77;;;13.88;;
66264;SDS011;53055;44.648;21.148;2023-04-01T08:34:12;24.02;;;14.82;;
66264;SDS011;53055;44.648;21.148;2023-04-01T08:36:42;23.52;;;15.93;;
66264;SDS011;53055;44.648;21.148;2023-04-01T08:39:10;28.20;;;18.77;;
66264;SDS011;53055;44.648;21.148;2023-04-01T08:54:19;28.58;;;16.08;;
66264;SDS011;53055;44.648;21.148;2023-04-01T08:56:56;27.15;;;15.10;;
66264;SDS011;53055;44.648;21.148;2023-04-01T09:07:20;34.92;;;25.05;;
66264;SDS011;53055;44.648;21.148;2023-04-01T09:27:48;39.35;;;34.38;;
66264;SDS011;53055;44.648;21.148;2023-04-01T09:30:27;35.08;;;29.30;;
66264;SDS011;53055;44.648;21.148;2023-04-01T09:35:39;47.40;;;35.58;;
66264;SDS011;53055;44.648;21.148;2023-04-01T09:41:01;36.78;;;30.58;;
66264;SDS011;53055;44.648;21.148;2023-04-01T09:46:14;51.45;;;42.53;;
66264;SDS011;53055;44.648;21.148;2023-04-01T10:23:19;16.48;;;10.82;;
66264;SDS011;53055;44.648;21.148;2023-04-01T10:31:22;31.48;;;22.73;;
66264;SDS011;53055;44.648;21.148;2023-04-01T10:33:58;22.52;;;18.75;;
66264;SDS011;53055;44.648;21.148;2023-04-01T10:39:20;24.30;;;19.27;;
66264;SDS011;53055;44.648;21.148;2023-04-01T10:52:24;25.48;;;20.45;;
66264;SDS011;53055;44.648;21.148;2023-04-01T11:00:35;33.50;;;29.30;;
66264;SDS011;53055;44.648;21.148;2023-04-01T11:16:06;28.42;;;23.50;;
66264;SDS011;53055;44.648;21.148;2023-04-01T11:34:49;24.60;;;19.73;;
66264;SDS011;53055;44.648;21.148;2023-04-01T11:39:59;20.95;;;15.85;;
66264;SDS011;53055;44.648;21.148;2023-04-01T11:42:40;15.35;;;11.20;;
66264;SDS011;53055;44.648;21.148;2023-04-01T11:45:19;17.38;;;10.93;;
66264;SDS011;53055;44.648;21.148;2023-04-01T12:05:23;25.65;;;18.75;;
66264;SDS011;53055;44.648;21.148;2023-04-01T12:13:16;16.63;;;12.63;;
66264;SDS011;53055;44.648;21.148;2023-04-01T12:15:52;16.00;;;11.90;;
66264;SDS011;53055;44.648;21.148;2023-04-01T12:28:25;22.17;;;13.63;;
66264;SDS011;53055;44.648;21.148;2023-04-01T12:36:19;8.13;;;4.22;;
66264;SDS011;53055;44.648;21.148;2023-04-01T12:41:45;20.10;;;11.23;;
66264;SDS011;53055;44.648;21.148;2023-04-01T13:20:26;12.25;;;6.57;;
66264;SDS011;53055;44.648;21.148;2023-04-01T13:27:56;23.60;;;15.85;;
66264;SDS011;53055;44.648;21.148;2023-04-01T13:30:25;8.40;;;4.93;;
66264;SDS011;53055;44.648;21.148;2023-04-01T13:32:59;8.27;;;3.75;;
66264;SDS011;53055;44.648;21.148;2023-04-01T13:43:24;6.72;;;2.15;;
66264;SDS011;53055;44.648;21.148;2023-04-01T13:56:23;10.13;;;5.07;;
66264;SDS011;53055;44.648;21.148;2023-04-01T14:04:03;9.98;;;4.95;;
66264;SDS011;53055;44.648;21.148;2023-04-01T14:09:17;6.80;;;3.70;;
66264;SDS011;53055;44.648;21.148;2023-04-01T14:19:12;7.50;;;3.38;;
66264;SDS011;53055;44.648;21.148;2023-04-01T14:21:42;6.57;;;3.20;;
66264;SDS011;53055;44.648;21.148;2023-04-01T14:29:35;17.88;;;12.30;;
66264;SDS011;53055;44.648;21.148;2023-04-01T14:49:53;27.20;;;20.20;;
66264;SDS011;53055;44.648;21.148;2023-04-01T14:52:24;8.75;;;3.97;;
66264;SDS011;53055;44.648;21.148;2023-04-01T14:54:53;14.18;;;10.23;;
66264;SDS011;53055;44.648;21.148;2023-04-01T14:57:29;35.58;;;25.40;;
66264;SDS011;53055;44.648;21.148;2023-04-01T15:00:00;6.95;;;3.60;;
66264;SDS011;53055;44.648;21.148;2023-04-01T15:20:56;6.05;;;2.50;;
66264;SDS011;53055;44.648;21.148;2023-04-01T15:28:26;6.45;;;2.38;;
66264;SDS011;53055;44.648;21.148;2023-04-01T15:33:39;6.22;;;2.20;;
66264;SDS011;53055;44.648;21.148;2023-04-01T15:44:35;5.93;;;2.35;;
66264;SDS011;53055;44.648;21.148;2023-04-01T15:47:07;6.70;;;2.22;;
66264;SDS011;53055;44.648;21.148;2023-04-01T16:05:34;5.75;;;1.95;;
66264;SDS011;53055;44.648;21.148;2023-04-01T16:08:16;5.55;;;2.28;;
66264;SDS011;53055;44.648;21.148;2023-04-01T16:24:01;7.45;;;2.50;;
66264;SDS011;53055;44.648;21.148;2023-04-01T16:29:16;8.52;;;5.22;;
66264;SDS011;53055;44.648;21.148;2023-04-01T16:31:46;11.63;;;8.68;;
66264;SDS011;53055;44.648;21.148;2023-04-01T16:34:16;13.40;;;10.80;;
66264;SDS011;53055;44.648;21.148;2023-04-01T16:47:21;12.10;;;8.57;;
66264;SDS011;53055;44.648;21.148;2023-04-01T16:49:52;11.68;;;8.43;;
66264;SDS011;53055;44.648;21.148;2023-04-01T16:52:32;12.15;;;8.50;;
66264;SDS011;53055;44.648;21.148;2023-04-01T16:55:01;11.52;;;7.97;;
66264;SDS011;53055;44.648;21.148;2023-04-01T16:57:37;10.70;;;7.43;;
66264;SDS011;53055;44.648;21.148;2023-04-01T17:05:34;11.23;;;8.57;;
66264;SDS011;53055;44.648;21.148;2023-04-01T17:08:06;12.00;;;8.63;;
66264;SDS011;53055;44.648;21.148;2023-04-01T17:20:50;10.13;;;7.22;;
66264;SDS011;53055;44.648;21.148;2023-04-01T17:23:25;10.05;;;6.53;;
66264;SDS011;53055;44.648;21.148;2023-04-01T17:25:59;8.70;;;6.07;;
66264;SDS011;53055;44.648;21.148;2023-04-01T17:28:45;9.70;;;5.07;;
66264;SDS011;53055;44.648;21.148;2023-04-01T17:39:03;8.85;;;4.95;;
66264;SDS011;53055;44.648;21.148;2023-04-01T17:41:33;11.07;;;7.10;;
66264;SDS011;53055;44.648;21.148;2023-04-01T17:44:06;12.20;;;9.27;;
66264;SDS011;53055;44.648;21.148;2023-04-01T17:49:14;15.30;;;11.00;;
66264;SDS011;53055;44.648;21.148;2023-04-01T17:56:47;13.95;;;9.85;;
66264;SDS011;53055;44.648;21.148;2023-04-01T18:10:03;26.50;;;23.75;;
66264;SDS011;53055;44.648;21.148;2023-04-01T18:12:36;33.70;;;27.95;;
66264;SDS011;53055;44.648;21.148;2023-04-01T18:15:15;43.25;;;38.67;;
66264;SDS011;53055;44.648;21.148;2023-04-01T18:20:24;30.70;;;27.42;;
66264;SDS011;53055;44.648;21.148;2023-04-01T18:22:55;32.33;;;28.83;;
66264;SDS011;53055;44.648;21.148;2023-04-01T18:25:30;23.85;;;20.00;;
66264;SDS011;53055;44.648;21.148;2023-04-01T18:30:53;10.93;;;8.60;;
66264;SDS011;53055;44.648;21.148;2023-04-01T18:33:29;11.80;;;8.85;;
66264;SDS011;53055;44.648;21.148;2023-04-01T18:36:09;10.77;;;8.40;;
66264;SDS011;53055;44.648;21.148;2023-04-01T18:38:37;11.88;;;7.15;;
66264;SDS011;53055;44.648;21.148;2023-04-01T18:41:11;9.35;;;6.28;;
66264;SDS011;53055;44.648;21.148;2023-04-01T18:46:38;13.43;;;9.50;;
66264;SDS011;53055;44.648;21.148;2023-04-01T18:49:13;14.25;;;10.38;;
66264;SDS011;53055;44.648;21.148;2023-04-01T18:51:57;13.30;;;8.65;;
66264;SDS011;53055;44.648;21.148;2023-04-01T18:57:04;11.13;;;8.02;;
66264;SDS011;53055;44.648;21.148;2023-04-01T18:59:39;11.70;;;7.45;;
66264;SDS011;53055;44.648;21.148;2023-04-01T19:09:55;10.32;;;6.57;;
66264;SDS011;53055;44.648;21.148;2023-04-01T19:25:46;9.52;;;6.78;;
66264;SDS011;53055;44.648;21.148;2023-04-01T19:30:59;10.15;;;6.57;;
66264;SDS011;53055;44.648;21.148;2023-04-01T19:33:48;9.15;;;5.82;;
66264;SDS011;53055;44.648;21.148;2023-04-01T19:36:20;10.68;;;6.13;;
66264;SDS011;53055;44.648;21.148;2023-04-01T19:38:52;8.33;;;5.00;;
66264;SDS011;53055;44.648;21.148;2023-04-01T19:51:34;7.20;;;4.45;;
66264;SDS011;53055;44.648;21.148;2023-04-01T19:56:39;7.18;;;3.88;;
66264;SDS011;53055;44.648;21.148;2023-04-01T19:59:18;7.47;;;4.40;;
66264;SDS011;53055;44.648;21.148;2023-04-01T20:01:48;7.68;;;4.20;;
66264;SDS011;53055;44.648;21.148;2023-04-01T20:04:37;8.93;;;4.65;;
66264;SDS011;53055;44.648;21.148;2023-04-01T20:07:10;8.98;;;5.20;;
66264;SDS011;53055;44.648;21.148;2023-04-01T20:09:52;10.32;;;5.55;;
66264;SDS011;53055;44.648;21.148;2023-04-01T20:17:51;10.45;;;6.13;;
66264;SDS011;53055;44.648;21.148;2023-04-01T20:20:19;8.77;;;5.68;;
66264;SDS011;53055;44.648;21.148;2023-04-01T20:27:40;7.10;;;4.80;;
66264;SDS011;53055;44.648;21.148;2023-04-01T20:40:51;14.10;;;10.25;;
66264;SDS011;53055;44.648;21.148;2023-04-01T20:46:20;13.68;;;10.60;;
66264;SDS011;53055;44.648;21.148;2023-04-01T20:49:00;13.10;;;10.32;;
66264;SDS011;53055;44.648;21.148;2023-04-01T20:51:35;13.77;;;10.35;;
66264;SDS011;53055;44.648;21.148;2023-04-01T20:54:17;14.10;;;11.10;;
66264;SDS011;53055;44.648;21.148;2023-04-01T21:05:27;13.98;;;10.02;;
66264;SDS011;53055;44.648;21.148;2023-04-01T21:18:15;9.90;;;6.40;;
66264;SDS011;53055;44.648;21.148;2023-04-01T21:23:47;10.68;;;7.03;;
66264;SDS011;53055;44.648;21.148;2023-04-01T21:31:46;12.13;;;7.13;;
66264;SDS011;53055;44.648;21.148;2023-04-01T21:34:31;10.60;;;7.22;;
66264;SDS011;53055;44.648;21.148;2023-04-01T21:39:42;9.80;;;6.40;;
66264;SDS011;53055;44.648;21.148;2023-04-01T21:44:46;11.10;;;7.70;;
66264;SDS011;53055;44.648;21.148;2023-04-01T21:58:27;11.98;;;9.13;;
66264;SDS011;53055;44.648;21.148;2023-04-01T22:17:08;16.73;;;13.35;;
66264;SDS011;53055;44.648;21.148;2023-04-01T22:19:43;14.93;;;10.18;;
66264;SDS011;53055;44.648;21.148;2023-04-01T22:25:08;15.50;;;10.30;;
66264;SDS011;53055;44.648;21.148;2023-04-01T22:27:52;15.43;;;11.60;;
66264;SDS011;53055;44.648;21.148;2023-04-01T22:30:24;15.43;;;12.52;;
66264;SDS011;53055;44.648;21.148;2023-04-01T22:32:52;15.13;;;10.98;;
66264;SDS011;53055;44.648;21.148;2023-04-01T22:38:14;11.82;;;8.27;;
66264;SDS011;53055;44.648;21.148;2023-04-01T22:40:56;13.30;;;9.30;;
66264;SDS011;53055;44.648;21.148;2023-04-01T22:43:34;12.82;;;8.18;;
66264;SDS011;53055;44.648;21.148;2023-04-01T22:51:38;11.38;;;8.00;;
66264;SDS011;53055;44.648;21.148;2023-04-01T23:02:58;15.77;;;10.95;;
66264;SDS011;53055;44.648;21.148;2023-04-01T23:05:01;17.60;;;11.30;;
66264;SDS011;53055;44.648;21.148;2023-04-01T23:12:46;14.95;;;10.23;;
66264;SDS011;53055;44.648;21.148;2023-04-01T23:15:13;12.68;;;9.43;;
66264;SDS011;53055;44.648;21.148;2023-04-01T23:25:24;11.82;;;9.00;;
66264;SDS011;53055;44.648;21.148;2023-04-01T23:35:46;11.45;;;8.00;;
66264;SDS011;53055;44.648;21.148;2023-04-01T23:38:13;11.90;;;7.95;;
66264;SDS011;53055;44.648;21.148;2023-04-01T23:40:40;13.57;;;9.40;;
66264;SDS011;53055;44.648;21.148;2023-04-01T23:43:20;13.02;;;10.10;;
66264;SDS011;53055;44.648;21.148;2023-04-01T23:45:48;15.52;;;12.23;;
66264;SDS011;53055;44.648;21.148;2023-04-01T23:48:15;14.10;;;10.75;;
66264;SDS011;53055;44.648;21.148;2023-04-01T23:50:42;14.85;;;12.30;;
66264;SDS011;53055;44.648;21.148;2023-04-01T23:53:16;12.88;;;9.32;;
66264;SDS011;53055;44.648;21.148;2023-04-01T23:55:44;14.10;;;9.70;;
66264;SDS011;53055;44.648;21.148;2023-04-01T23:58:27;12.35;;;8.30;;
